Time;durP1;ratioP1;P1;durP2;ratioP2;P2;SDS_P1;SDS_P2;PMS_P1;PMS_P2;Temp;Humidity;BMP_temperature;BMP_pressure;BME280_temperature;BME280_humidity;BME280_pressure;Samples;Min_cycle;Max_cycle;Signal;HPM_P1;HPM_P2
2022/01/07 00:02:25;;;;;;;0.00;0.00;;;1.80;99.90;;;;;;6194482;23;20015;-70
2022/01/07 00:04:50;;;;;;;0.00;0.00;;;1.80;99.90;;;;;;6194653;23;20296;-70
2022/01/07 00:07:16;;;;;;;0.00;0.00;;;1.80;99.90;;;;;;6195118;23;20065;-70
2022/01/07 00:09:42;;;;;;;0.00;0.00;;;1.80;99.90;;;;;;6194559;23;20019;-71
2022/01/07 00:12:08;;;;;;;0.00;0.00;;;1.80;99.90;;;;;;6195251;23;20141;-71
2022/01/07 00:14:34;;;;;;;0.00;0.00;;;1.80;99.90;;;;;;6194143;23;19989;-71
2022/01/07 00:16:59;;;;;;;0.00;0.00;;;1.80;99.90;;;;;;6195355;23;20000;-71
2022/01/07 00:19:25;;;;;;;0.00;0.00;;;1.70;99.90;;;;;;6194336;23;19996;-70
2022/01/07 00:21:51;;;;;;;0.00;0.00;;;1.70;99.90;;;;;;6194701;23;19993;-70
2022/01/07 00:24:18;;;;;;;0.00;0.00;;;1.70;99.90;;;;;;6195097;23;19989;-69
2022/01/07 00:26:43;;;;;;;0.00;0.00;;;1.70;99.90;;;;;;6194221;23;20189;-70
2022/01/07 00:29:09;;;;;;;0.00;0.00;;;1.70;99.90;;;;;;6194743;23;20012;-70
2022/01/07 00:31:35;;;;;;;0.00;0.00;;;1.70;99.90;;;;;;6168051;23;19997;-70
2022/01/07 00:34:00;;;;;;;0.00;0.00;;;1.60;99.90;;;;;;6168653;23;20108;-70
2022/01/07 00:36:27;;;;;;;0.00;0.00;;;1.60;99.90;;;;;;6194257;23;20016;-70
2022/01/07 00:38:53;;;;;;;0.00;0.00;;;1.60;99.90;;;;;;6194653;23;20096;-69
2022/01/07 00:41:18;;;;;;;0.00;0.00;;;1.60;99.90;;;;;;6144117;23;19993;-69
2022/01/07 00:43:44;;;;;;;0.00;0.00;;;1.60;99.90;;;;;;6193739;23;19989;-70
2022/01/07 00:46:10;;;;;;;0.00;0.00;;;1.60;99.90;;;;;;6168508;23;20000;-70
2022/01/07 00:48:35;;;;;;;0.00;0.00;;;1.60;99.90;;;;;;6194048;23;20013;-70
2022/01/07 00:51:01;;;;;;;0.00;0.00;;;1.60;99.90;;;;;;6174120;23;20009;-71
2022/01/07 00:53:27;;;;;;;0.00;0.00;;;1.60;99.90;;;;;;6192861;23;19989;-70
2022/01/07 00:55:53;;;;;;;0.00;0.00;;;1.50;99.90;;;;;;6194799;23;20152;-71
2022/01/07 00:58:18;;;;;;;0.00;0.00;;;1.50;99.90;;;;;;6193308;23;20004;-71
2022/01/07 01:00:44;;;;;;;0.00;0.00;;;1.50;99.90;;;;;;6194158;23;19989;-70
2022/01/07 01:03:10;;;;;;;0.00;0.00;;;1.50;99.90;;;;;;6194639;23;19989;-71
2022/01/07 01:05:36;;;;;;;0.00;0.00;;;1.50;99.90;;;;;;6192395;23;20012;-69
2022/01/07 01:08:03;;;;;;;0.00;0.00;;;1.50;99.90;;;;;;6194431;23;20088;-71
2022/01/07 01:10:29;;;;;;;0.00;0.00;;;1.50;99.90;;;;;;6192889;23;19997;-71
2022/01/07 01:12:55;;;;;;;0.00;0.00;;;1.50;99.90;;;;;;6193052;23;19993;-71
2022/01/07 01:15:24;;;;;;;0.00;0.00;;;1.50;99.90;;;;;;6194043;23;20134;-71
2022/01/07 01:17:51;;;;;;;0.00;0.00;;;1.50;99.90;;;;;;6193303;23;20052;-71
2022/01/07 01:20:17;;;;;;;0.00;0.00;;;1.50;99.90;;;;;;6194284;23;19989;-71
2022/01/07 01:22:44;;;;;;;0.00;0.00;;;1.50;99.90;;;;;;6193735;23;20009;-71
2022/01/07 01:25:11;;;;;;;0.00;0.00;;;1.50;99.90;;;;;;6192958;23;20005;-71
2022/01/07 01:27:37;;;;;;;0.00;0.00;;;1.50;99.90;;;;;;6193418;23;19993;-71
2022/01/07 01:30:06;;;;;;;0.00;0.00;;;1.50;99.90;;;;;;6194559;23;20000;-70
2022/01/07 01:32:32;;;;;;;0.00;0.00;;;1.50;99.90;;;;;;6193259;23;19989;-69
2022/01/07 01:34:58;;;;;;;0.00;0.00;;;1.50;99.90;;;;;;6194589;23;20188;-69
2022/01/07 01:37:23;;;;;;;0.00;0.00;;;1.50;99.90;;;;;;6192790;23;20295;-70
2022/01/07 01:39:49;;;;;;;0.00;0.00;;;1.50;99.90;;;;;;6192131;23;20348;-68
2022/01/07 01:42:15;;;;;;;0.00;0.00;;;1.50;99.90;;;;;;6192859;23;20229;-68
2022/01/07 01:44:41;;;;;;;0.00;0.00;;;1.50;99.90;;;;;;6193792;23;19989;-69
2022/01/07 01:47:07;;;;;;;0.00;0.00;;;1.50;99.90;;;;;;6193924;23;19993;-69
2022/01/07 01:49:33;;;;;;;0.00;0.00;;;1.50;99.90;;;;;;6193774;23;20020;-70
2022/01/07 01:52:00;;;;;;;0.00;0.00;;;1.40;99.90;;;;;;6192371;23;20013;-71
2022/01/07 01:54:26;;;;;;;0.00;0.00;;;1.40;99.90;;;;;;6193945;23;19997;-70
2022/01/07 01:56:51;;;;;;;0.00;0.00;;;1.50;99.90;;;;;;6193075;23;20024;-71
2022/01/07 01:59:28;;;;;;;0.00;0.00;;;1.50;99.90;;;;;;6194177;23;20279;-72
2022/01/07 02:01:54;;;;;;;0.00;0.00;;;1.40;99.90;;;;;;6193622;23;19989;-70
2022/01/07 02:04:21;;;;;;;0.00;0.00;;;1.50;99.90;;;;;;6192585;23;20000;-70
2022/01/07 02:06:47;;;;;;;0.00;0.00;;;1.50;99.90;;;;;;6191965;23;20004;-70
2022/01/07 02:09:13;;;;;;;0.00;0.00;;;1.50;99.90;;;;;;6194252;23;20008;-70
2022/01/07 02:11:38;;;;;;;0.00;0.00;;;1.40;99.90;;;;;;6193153;23;20008;-70
2022/01/07 02:14:04;;;;;;;0.00;0.00;;;1.40;99.90;;;;;;6192603;23;20260;-70
2022/01/07 02:16:30;;;;;;;0.00;0.00;;;1.40;99.90;;;;;;6194076;23;20000;-71
2022/01/07 02:18:55;;;;;;;0.00;0.00;;;1.40;99.90;;;;;;6193541;23;20244;-71
2022/01/07 02:21:22;;;;;;;0.00;0.00;;;1.40;99.90;;;;;;6193675;23;20204;-70
2022/01/07 02:23:48;;;;;;;0.00;0.00;;;1.40;99.90;;;;;;6193406;23;19995;-70
2022/01/07 02:26:14;;;;;;;0.00;0.00;;;1.30;99.90;;;;;;6192529;23;19993;-70
2022/01/07 02:28:41;;;;;;;0.00;0.00;;;1.30;99.90;;;;;;6194602;23;20039;-71
2022/01/07 02:31:07;;;;;;;0.00;0.00;;;1.30;99.90;;;;;;6196156;23;20028;-71
2022/01/07 02:33:32;;;;;;;0.00;0.00;;;1.30;99.90;;;;;;6195516;23;20061;-71
2022/01/07 02:36:04;;;;;;;0.00;0.00;;;1.30;99.90;;;;;;6194151;23;20224;-71
2022/01/07 02:38:49;;;;;;;0.00;0.00;;;1.40;99.90;;;;;;6195844;23;20280;-69
2022/01/07 02:41:14;;;;;;;0.00;0.00;;;1.50;99.90;;;;;;6195666;23;20307;-69
2022/01/07 02:43:40;;;;;;;0.00;0.00;;;1.50;99.90;;;;;;6193763;23;19993;-69
2022/01/07 02:46:06;;;;;;;0.00;0.00;;;1.50;99.90;;;;;;6194402;23;19989;-69
2022/01/07 02:48:31;;;;;;;0.00;0.00;;;1.70;99.90;;;;;;6195917;23;20160;-69
2022/01/07 02:50:57;;;;;;;0.00;0.00;;;1.70;99.90;;;;;;6194737;23;20001;-69
2022/01/07 02:53:23;;;;;;;0.00;0.00;;;1.60;99.90;;;;;;6195559;23;19993;-69
2022/01/07 02:55:50;;;;;;;0.00;0.00;;;1.60;99.90;;;;;;6168834;23;19988;-68
2022/01/07 02:58:16;;;;;;;0.00;0.00;;;1.60;99.90;;;;;;6195943;23;19997;-69
2022/01/07 03:00:41;;;;;;;0.00;0.00;;;1.50;99.90;;;;;;6194874;23;20180;-69
2022/01/07 03:03:08;;;;;;;0.00;0.00;;;1.60;99.90;;;;;;6195630;23;20268;-69
2022/01/07 03:05:34;;;;;;;0.00;0.00;;;1.50;99.90;;;;;;6169500;23;20318;-68
2022/01/07 03:07:59;;;;;;;0.00;0.00;;;1.50;99.90;;;;;;6168598;23;19997;-70
2022/01/07 03:10:29;;;;;;;0.00;0.00;;;1.40;99.90;;;;;;6195772;23;19989;-70
2022/01/07 03:13:00;;;;;;;0.00;0.00;;;1.40;99.90;;;;;;6194935;23;19996;-69
2022/01/07 03:15:27;;;;;;;0.00;0.00;;;1.30;99.90;;;;;;6195816;23;19996;-69
2022/01/07 03:17:53;;;;;;;0.00;0.00;;;1.30;99.90;;;;;;6169001;23;19989;-69
2022/01/07 03:20:20;;;;;;;0.00;0.00;;;1.20;99.90;;;;;;6195431;23;20179;-68
2022/01/07 03:22:46;;;;;;;0.00;0.00;;;1.20;99.90;;;;;;6168607;23;19997;-69
2022/01/07 03:25:13;;;;;;;0.00;0.00;;;1.20;99.90;;;;;;6195576;23;19993;-68
2022/01/07 03:27:39;;;;;;;0.00;0.00;;;1.20;99.90;;;;;;6191205;23;20160;-69
2022/01/07 03:30:07;;;;;;;0.00;0.00;;;1.20;99.90;;;;;;6190793;23;19997;-69
2022/01/07 03:32:33;;;;;;;0.00;0.00;;;1.10;99.90;;;;;;6190685;23;19997;-69
2022/01/07 03:34:59;;;;;;;0.00;0.00;;;1.10;99.90;;;;;;6190048;23;20022;-70
2022/01/07 03:37:25;;;;;;;0.00;0.00;;;1.10;99.90;;;;;;6191660;23;19993;-70
2022/01/07 03:39:50;;;;;;;0.00;0.00;;;1.10;99.90;;;;;;6193243;23;20023;-70
2022/01/07 03:42:16;;;;;;;0.00;0.00;;;1.10;99.90;;;;;;6194452;23;20040;-70
2022/01/07 03:44:42;;;;;;;0.00;0.00;;;1.10;99.90;;;;;;6193487;23;19989;-71
2022/01/07 03:47:08;;;;;;;0.00;0.00;;;1.10;99.90;;;;;;6168784;23;20015;-70
2022/01/07 03:49:33;;;;;;;0.00;0.00;;;1.10;99.90;;;;;;6195199;23;20059;-70
2022/01/07 03:51:59;;;;;;;0.00;0.00;;;1.10;99.90;;;;;;6194646;23;20100;-71
2022/01/07 03:54:24;;;;;;;0.00;0.00;;;1.10;99.90;;;;;;6195232;23;20215;-71
2022/01/07 03:56:50;;;;;;;0.00;0.00;;;1.00;99.90;;;;;;6194270;23;19993;-71
2022/01/07 03:59:16;;;;;;;0.00;0.00;;;1.00;99.90;;;;;;6168678;23;20190;-72
2022/01/07 04:01:41;;;;;;;0.00;0.00;;;1.00;99.90;;;;;;6194370;23;20069;-71
2022/01/07 04:04:07;;;;;;;0.00;0.00;;;1.00;99.90;;;;;;6195229;23;20041;-71
2022/01/07 04:06:33;;;;;;;0.00;0.00;;;1.00;99.90;;;;;;6168914;23;19997;-71
2022/01/07 04:08:58;;;;;;;0.00;0.00;;;1.00;99.90;;;;;;6168178;23;20004;-71
2022/01/07 04:11:25;;;;;;;0.00;0.00;;;1.00;99.90;;;;;;6195185;23;20335;-72
2022/01/07 04:13:51;;;;;;;0.00;0.00;;;0.90;99.90;;;;;;6194360;23;20009;-70
2022/01/07 04:16:17;;;;;;;0.00;0.00;;;0.90;99.90;;;;;;6194816;23;20272;-70
2022/01/07 04:18:43;;;;;;;0.00;0.00;;;0.90;99.90;;;;;;6194460;23;20045;-70
2022/01/07 04:21:09;;;;;;;0.00;0.00;;;0.90;99.90;;;;;;6195144;23;20004;-70
2022/01/07 04:23:35;;;;;;;0.00;0.00;;;0.90;99.90;;;;;;6194785;23;19989;-69
2022/01/07 04:26:00;;;;;;;0.00;0.00;;;0.90;99.90;;;;;;6168109;23;19993;-70
2022/01/07 04:28:26;;;;;;;0.00;0.00;;;0.90;99.90;;;;;;6195120;23;20068;-70
2022/01/07 04:30:52;;;;;;;0.00;0.00;;;0.90;99.90;;;;;;6168019;23;20021;-69
2022/01/07 04:33:25;;;;;;;0.00;0.00;;;0.90;99.90;;;;;;6168486;23;20320;-69
2022/01/07 04:35:52;;;;;;;0.00;0.00;;;0.90;99.90;;;;;;6193917;23;20017;-68
2022/01/07 04:38:17;;;;;;;0.00;0.00;;;0.90;99.90;;;;;;6168242;23;20370;-69
2022/01/07 04:40:43;;;;;;;0.00;0.00;;;0.90;99.90;;;;;;6193933;23;19993;-69
2022/01/07 04:43:09;;;;;;;0.00;0.00;;;0.80;99.90;;;;;;6194679;23;20024;-69
2022/01/07 04:45:35;;;;;;;0.00;0.00;;;0.80;99.90;;;;;;6168475;23;20000;-69
2022/01/07 04:48:01;;;;;;;0.00;0.00;;;0.80;99.90;;;;;;6193772;23;20222;-69
2022/01/07 04:50:28;;;;;;;0.00;0.00;;;0.80;99.90;;;;;;6194583;23;19993;-69
2022/01/07 04:52:53;;;;;;;0.00;0.00;;;0.80;99.90;;;;;;6167772;23;20267;-69
2022/01/07 04:55:22;;;;;;;0.00;0.00;;;0.70;99.90;;;;;;6194405;23;19989;-69
2022/01/07 04:57:49;;;;;;;0.00;0.00;;;0.60;99.90;;;;;;6194074;23;19993;-69
2022/01/07 05:00:16;;;;;;;0.00;0.00;;;0.70;99.90;;;;;;6194378;23;20077;-69
2022/01/07 05:02:42;;;;;;;0.00;0.00;;;0.60;99.90;;;;;;6194198;23;19996;-69
2022/01/07 05:05:09;;;;;;;0.00;0.00;;;0.70;99.90;;;;;;6168300;23;20012;-68
2022/01/07 05:07:36;;;;;;;0.00;0.00;;;0.60;99.90;;;;;;6168404;23;19997;-68
2022/01/07 05:10:08;;;;;;;0.00;0.00;;;0.60;99.90;;;;;;6194179;23;20003;-69
2022/01/07 05:12:34;;;;;;;0.00;0.00;;;0.60;99.90;;;;;;6194558;23;20047;-69
2022/01/07 05:15:00;;;;;;;0.00;0.00;;;0.60;99.90;;;;;;6194149;23;20264;-69
2022/01/07 05:17:26;;;;;;;0.00;0.00;;;0.60;99.90;;;;;;6168452;23;20031;-69
2022/01/07 05:19:51;;;;;;;0.00;0.00;;;0.50;99.90;;;;;;6167838;23;20328;-69
2022/01/07 05:22:17;;;;;;;0.00;0.00;;;0.50;99.90;;;;;;6194096;23;20264;-69
2022/01/07 05:24:43;;;;;;;0.00;0.00;;;0.50;99.90;;;;;;6194642;23;19989;-69
2022/01/07 05:27:08;;;;;;;0.00;0.00;;;0.50;99.90;;;;;;6193887;23;20172;-70
2022/01/07 05:29:35;;;;;;;0.00;0.00;;;0.40;99.90;;;;;;6194453;23;20188;-70
2022/01/07 05:32:09;;;;;;;0.00;0.00;;;0.40;99.90;;;;;;6167355;23;20004;-69
2022/01/07 05:34:35;;;;;;;0.00;0.00;;;0.40;99.90;;;;;;6194754;23;19993;-69
2022/01/07 05:37:01;;;;;;;0.00;0.00;;;0.40;99.90;;;;;;6193491;23;19993;-69
2022/01/07 05:39:27;;;;;;;0.00;0.00;;;0.40;99.90;;;;;;6194258;23;19993;-69
2022/01/07 05:41:53;;;;;;;0.00;0.00;;;0.40;99.90;;;;;;6193835;23;19989;-68
2022/01/07 05:44:19;;;;;;;0.00;0.00;;;0.40;99.90;;;;;;6194594;23;20016;-69
2022/01/07 05:46:45;;;;;;;0.00;0.00;;;0.40;99.90;;;;;;6167931;23;19993;-68
2022/01/07 05:49:12;;;;;;;0.00;0.00;;;0.40;99.90;;;;;;6194382;23;20040;-68
2022/01/07 05:51:37;;;;;;;0.00;0.00;;;0.40;99.90;;;;;;6194645;23;20008;-69
2022/01/07 05:54:03;;;;;;;0.00;0.00;;;0.40;99.90;;;;;;6193429;23;19994;-68
2022/01/07 05:56:29;;;;;;;0.00;0.00;;;0.40;99.90;;;;;;6194656;23;19996;-70
2022/01/07 05:58:54;;;;;;;0.00;0.00;;;0.40;99.90;;;;;;6193449;23;20012;-70
2022/01/07 06:01:20;;;;;;;0.00;0.00;;;0.40;99.90;;;;;;6194599;23;20049;-70
2022/01/07 06:03:46;;;;;;;0.00;0.00;;;0.40;99.90;;;;;;6167566;23;20306;-69
2022/01/07 06:06:11;;;;;;;0.00;0.00;;;0.40;99.90;;;;;;6193660;23;20091;-70
2022/01/07 06:08:37;;;;;;;0.00;0.00;;;0.40;99.90;;;;;;6194193;23;19992;-68
2022/01/07 06:11:04;;;;;;;0.00;0.00;;;0.40;99.90;;;;;;6193312;23;19989;-69
2022/01/07 06:13:30;;;;;;;0.00;0.00;;;0.40;99.90;;;;;;6168312;23;19989;-69
2022/01/07 06:15:55;;;;;;;0.00;0.00;;;0.40;99.90;;;;;;6193783;23;20071;-68
2022/01/07 06:18:21;;;;;;;0.00;0.00;;;0.40;99.90;;;;;;6194657;23;20048;-68
2022/01/07 06:20:47;;;;;;;0.00;0.00;;;0.40;99.90;;;;;;6167924;23;20000;-68
2022/01/07 06:23:13;;;;;;;0.00;0.00;;;0.40;99.90;;;;;;6193672;23;19996;-69
2022/01/07 06:25:39;;;;;;;0.00;0.00;;;0.40;99.90;;;;;;6194318;23;19993;-68
2022/01/07 06:28:04;;;;;;;0.00;0.00;;;0.40;99.90;;;;;;6193629;23;19997;-69
2022/01/07 06:30:30;;;;;;;0.00;0.00;;;0.40;99.90;;;;;;6194269;23;20088;-68
2022/01/07 06:32:56;;;;;;;0.00;0.00;;;0.50;99.90;;;;;;6193233;23;20020;-68
2022/01/07 06:35:21;;;;;;;0.00;0.00;;;0.50;99.90;;;;;;6194101;23;20032;-68
2022/01/07 06:38:06;;;;;;;0.00;0.00;;;0.50;99.90;;;;;;6194024;23;20136;-69
2022/01/07 06:40:32;;;;;;;0.00;0.00;;;0.50;99.90;;;;;;6168011;23;19989;-68
2022/01/07 06:42:57;;;;;;;0.00;0.00;;;0.50;99.90;;;;;;6167049;23;20020;-68
2022/01/07 06:45:23;;;;;;;0.00;0.00;;;0.50;99.90;;;;;;6193881;23;20040;-68
2022/01/07 06:47:49;;;;;;;0.00;0.00;;;0.50;99.90;;;;;;6194182;23;19996;-68
2022/01/07 06:50:14;;;;;;;0.00;0.00;;;0.50;99.90;;;;;;6167254;23;20069;-69
2022/01/07 06:52:40;;;;;;;0.00;0.00;;;0.60;99.90;;;;;;6194447;23;19993;-69
2022/01/07 06:55:06;;;;;;;0.00;0.00;;;0.60;99.90;;;;;;6193535;23;20012;-69
2022/01/07 06:57:32;;;;;;;0.00;0.00;;;0.60;99.90;;;;;;6194211;23;19997;-69
2022/01/07 06:59:58;;;;;;;0.00;0.00;;;0.80;99.90;;;;;;6167172;23;20040;-69
2022/01/07 07:02:24;;;;;;;0.00;0.00;;;0.70;99.90;;;;;;6167443;23;20056;-69
2022/01/07 07:04:50;;;;;;;0.00;0.00;;;0.70;99.90;;;;;;6193847;23;19986;-69
2022/01/07 07:07:16;;;;;;;0.00;0.00;;;0.70;99.90;;;;;;6193701;23;19993;-69
2022/01/07 07:09:41;;;;;;;0.00;0.00;;;0.70;99.90;;;;;;6167894;23;19997;-69
2022/01/07 07:12:08;;;;;;;0.00;0.00;;;0.70;99.90;;;;;;6192901;23;19996;-69
2022/01/07 07:14:33;;;;;;;0.00;0.00;;;0.60;99.90;;;;;;6167975;23;19993;-69
2022/01/07 07:16:59;;;;;;;0.00;0.00;;;0.60;99.90;;;;;;6169031;23;20000;-69
2022/01/07 07:19:25;;;;;;;0.00;0.00;;;0.60;99.90;;;;;;6195664;23;20299;-69
2022/01/07 07:21:51;;;;;;;0.00;0.00;;;0.50;99.90;;;;;;6169514;23;20280;-68
2022/01/07 07:24:16;;;;;;;0.00;0.00;;;0.50;99.90;;;;;;6194840;23;19996;-68
2022/01/07 07:26:42;;;;;;;0.00;0.00;;;0.50;99.90;;;;;;6195744;23;19993;-68
2022/01/07 07:29:08;;;;;;;0.00;0.00;;;0.50;99.90;;;;;;6194859;23;19989;-68
2022/01/07 07:31:38;;;;;;;0.00;0.00;;;0.60;99.90;;;;;;6196099;23;20267;-68
2022/01/07 07:36:32;;;;;;;0.00;0.00;;;0.60;99.90;;;;;;6195426;23;20063;-68
2022/01/07 07:39:01;;;;;;;0.00;0.00;;;0.50;99.90;;;;;;6194800;23;20208;-68
2022/01/07 07:41:28;;;;;;;0.00;0.00;;;0.60;99.90;;;;;;6169335;23;20137;-68
2022/01/07 07:43:56;;;;;;;0.00;0.00;;;0.60;99.90;;;;;;6195178;23;19999;-68
2022/01/07 07:46:22;;;;;;;0.00;0.00;;;0.60;99.90;;;;;;6195212;23;20280;-69
2022/01/07 07:48:48;;;;;;;0.00;0.00;;;0.60;99.90;;;;;;6195290;23;19993;-69
2022/01/07 07:51:14;;;;;;;0.00;0.00;;;0.60;99.90;;;;;;6176799;23;20012;-68
2022/01/07 07:53:40;;;;;;;0.00;0.00;;;0.60;99.90;;;;;;6195605;23;20004;-69
2022/01/07 07:56:26;;;;;;;0.00;0.00;;;0.60;99.90;;;;;;6194566;23;19985;-68
2022/01/07 07:58:52;;;;;;;0.00;0.00;;;0.60;99.90;;;;;;6194115;23;19993;-69
2022/01/07 08:01:18;;;;;;;0.00;0.00;;;0.60;99.90;;;;;;6193140;23;19993;-69
2022/01/07 08:03:45;;;;;;;0.00;0.00;;;0.70;99.90;;;;;;6195076;23;20043;-70
2022/01/07 08:06:11;;;;;;;0.00;0.00;;;0.70;99.90;;;;;;6193275;23;20060;-70
2022/01/07 08:08:37;;;;;;;0.00;0.00;;;0.80;99.90;;;;;;6194864;23;20120;-70
2022/01/07 08:11:06;;;;;;;0.00;0.00;;;0.90;99.90;;;;;;6194413;23;20216;-71
2022/01/07 08:15:58;;;;;;;0.00;0.00;;;0.90;99.90;;;;;;6195109;23;19985;-70
2022/01/07 08:16:19;;;;;;;0.00;0.00;;;0.90;99.90;;;;;;6193782;23;20060;-70
2022/01/07 08:18:53;;;;;;;0.00;0.00;;;0.90;99.90;;;;;;6193946;23;19989;-70
2022/01/07 08:21:21;;;;;;;0.00;0.00;;;0.90;99.90;;;;;;6194078;23;19997;-71
2022/01/07 08:23:47;;;;;;;0.00;0.00;;;0.90;99.90;;;;;;6195095;23;19993;-70
2022/01/07 08:26:14;;;;;;;0.00;0.00;;;0.90;99.90;;;;;;6193996;23;20045;-69
2022/01/07 08:28:43;;;;;;;0.00;0.00;;;0.90;99.90;;;;;;6194654;23;20027;-69
2022/01/07 08:36:24;;;;;;;0.00;0.00;;;1.10;99.90;;;;;;6194435;23;20183;-70
2022/01/07 08:38:52;;;;;;;0.00;0.00;;;1.30;99.90;;;;;;6192552;23;20052;-72
2022/01/07 08:41:20;;;;;;;0.00;0.00;;;1.30;99.90;;;;;;6194086;23;20172;-70
2022/01/07 08:43:46;;;;;;;0.00;0.00;;;1.20;99.90;;;;;;6195008;23;19994;-70
2022/01/07 08:46:11;;;;;;;0.00;0.00;;;1.20;99.90;;;;;;6192939;23;20175;-70
2022/01/07 08:48:38;;;;;;;0.00;0.00;;;1.20;99.90;;;;;;6195053;23;20031;-69
2022/01/07 08:51:04;;;;;;;0.00;0.00;;;1.20;99.90;;;;;;6194369;23;20020;-69
2022/01/07 08:53:30;;;;;;;0.00;0.00;;;1.10;99.90;;;;;;6195048;23;20000;-68
2022/01/07 08:55:56;;;;;;;0.00;0.00;;;1.20;99.90;;;;;;6194569;23;20009;-69
2022/01/07 08:58:22;;;;;;;0.00;0.00;;;1.20;99.90;;;;;;6168271;23;19996;-69
2022/01/07 09:00:48;;;;;;;0.00;0.00;;;1.20;99.90;;;;;;6194544;23;19989;-68
2022/01/07 09:03:14;;;;;;;0.00;0.00;;;1.30;99.90;;;;;;6193761;23;20183;-68
2022/01/07 09:05:39;;;;;;;0.00;0.00;;;1.40;99.90;;;;;;6194472;23;20163;-69
2022/01/07 09:08:09;;;;;;;0.00;0.00;;;1.40;99.90;;;;;;6193323;23;20176;-69
2022/01/07 09:10:41;;;;;;;0.00;0.00;;;1.50;99.90;;;;;;6167908;23;20020;-69
2022/01/07 09:13:08;;;;;;;0.00;0.00;;;1.60;99.90;;;;;;6167208;23;20181;-68
2022/01/07 09:15:34;;;;;;;0.00;0.00;;;1.60;99.90;;;;;;6194028;23;19996;-69
2022/01/07 09:18:00;;;;;;;0.00;0.00;;;1.70;99.90;;;;;;6194078;23;19993;-69
2022/01/07 09:20:26;;;;;;;0.00;0.00;;;1.60;99.90;;;;;;6195077;23;20044;-71
2022/01/07 09:22:53;;;;;;;0.00;0.00;;;1.60;99.90;;;;;;6194887;23;19989;-69
2022/01/07 09:25:19;;;;;;;0.00;0.00;;;1.50;99.90;;;;;;6193556;23;19993;-69
2022/01/07 09:27:44;;;;;;;0.00;0.00;;;1.40;99.90;;;;;;6167940;23;20035;-68
2022/01/07 09:30:11;;;;;;;0.00;0.00;;;1.40;99.90;;;;;;6193486;23;20005;-70
2022/01/07 09:32:38;;;;;;;0.00;0.00;;;1.40;99.90;;;;;;6168258;23;20085;-69
2022/01/07 09:35:04;;;;;;;0.00;0.00;;;1.60;99.90;;;;;;6193480;23;19993;-69
2022/01/07 09:37:30;;;;;;;0.00;0.00;;;1.50;99.90;;;;;;6194015;23;20021;-69
2022/01/07 09:39:56;;;;;;;0.00;0.00;;;1.50;99.90;;;;;;6168016;23;20048;-69
2022/01/07 09:42:22;;;;;;;0.00;0.00;;;1.50;99.90;;;;;;6167396;23;20027;-69
2022/01/07 09:44:48;;;;;;;0.00;0.00;;;1.40;99.90;;;;;;6167729;23;20055;-69
2022/01/07 09:47:17;;;;;;;0.00;0.00;;;1.50;99.90;;;;;;6167149;23;20000;-69
2022/01/07 09:49:42;;;;;;;0.00;0.00;;;1.50;99.90;;;;;;6168609;23;19993;-69
2022/01/07 09:52:09;;;;;;;0.00;0.00;;;1.60;99.90;;;;;;6193258;23;20192;-69
2022/01/07 09:54:37;;;;;;;0.00;0.00;;;1.60;99.90;;;;;;6194694;23;20015;-69
2022/01/07 09:57:06;;;;;;;0.00;0.00;;;1.50;99.90;;;;;;6167417;23;20056;-70
2022/01/07 09:59:32;;;;;;;0.00;0.00;;;1.60;99.90;;;;;;6168083;23;20020;-67
2022/01/07 10:01:58;;;;;;;0.00;0.00;;;1.50;99.90;;;;;;6194269;23;20291;-69
2022/01/07 10:04:41;;;;;;;0.00;0.00;;;1.50;99.90;;;;;;6193623;23;20004;-69
2022/01/07 10:07:21;;;;;;;0.00;0.00;;;1.50;99.90;;;;;;6167151;23;20284;-69
2022/01/07 10:10:10;;;;;;;0.00;0.00;;;1.50;99.90;;;;;;6194543;23;20012;-69
2022/01/07 10:13:00;;;;;;;0.00;0.00;;;1.50;99.90;;;;;;6194509;23;20047;-66
2022/01/07 10:15:28;;;;;;;0.00;0.00;;;1.50;99.90;;;;;;6167421;23;20420;-68
2022/01/07 10:18:03;;;;;;;0.00;0.00;;;1.50;99.90;;;;;;6194292;23;19996;-68
2022/01/07 10:20:40;;;;;;;0.00;0.00;;;1.50;99.90;;;;;;6167616;23;20161;-67
2022/01/07 10:23:13;;;;;;;0.00;0.00;;;1.50;99.90;;;;;;6193293;23;20020;-70
2022/01/07 10:25:42;;;;;;;0.00;0.00;;;1.60;99.90;;;;;;6193867;23;19997;-69
2022/01/07 10:28:18;;;;;;;0.00;0.00;;;1.50;99.90;;;;;;6192969;23;20294;-68
2022/01/07 10:30:50;;;;;;;0.00;0.00;;;1.60;99.90;;;;;;6167753;23;19997;-66
2022/01/07 10:33:22;;;;;;;0.00;0.00;;;1.60;99.90;;;;;;6167151;23;19989;-68
2022/01/07 10:35:53;;;;;;;0.00;0.00;;;1.70;99.90;;;;;;6194106;23;19993;-70
2022/01/07 10:38:22;;;;;;;0.00;0.00;;;1.70;99.90;;;;;;6193637;23;20007;-71
2022/01/07 10:40:49;;;;;;;0.00;0.00;;;1.80;99.90;;;;;;6166355;23;19993;-73
2022/01/07 10:43:24;;;;;;;0.00;0.00;;;1.90;99.90;;;;;;6167306;23;19993;-71
2022/01/07 10:45:50;;;;;;;0.00;0.00;;;1.80;99.90;;;;;;6193820;23;19993;-72
2022/01/07 10:48:17;;;;;;;0.00;0.00;;;1.80;99.90;;;;;;6167051;23;20016;-76
2022/01/07 10:50:46;;;;;;;0.00;0.00;;;1.90;99.90;;;;;;6195701;23;20001;-75
2022/01/07 10:53:28;;;;;;;0.00;0.00;;;1.90;99.90;;;;;;6195029;23;19993;-71
2022/01/07 10:56:08;;;;;;;0.00;0.00;;;2.00;99.90;;;;;;6196160;23;20016;-72
2022/01/07 10:58:46;;;;;;;0.00;0.00;;;2.10;99.90;;;;;;6169974;23;20302;-72
2022/01/07 11:01:21;;;;;;;0.00;0.00;;;2.20;99.90;;;;;;6168670;23;19989;-72
2022/01/07 11:03:52;;;;;;;0.00;0.00;;;2.20;99.90;;;;;;6195905;23;20212;-72
2022/01/07 11:06:19;;;;;;;0.00;0.00;;;2.20;99.90;;;;;;6195262;23;19992;-72
2022/01/07 11:08:48;;;;;;;0.00;0.00;;;2.30;99.90;;;;;;6195657;23;19993;-73
2022/01/07 11:11:14;;;;;;;0.00;0.00;;;2.40;99.90;;;;;;6194460;23;20048;-73
2022/01/07 11:13:41;;;;;;;0.00;0.00;;;2.30;99.90;;;;;;6195856;23;20311;-72
2022/01/07 11:16:07;;;;;;;0.00;0.00;;;2.30;99.90;;;;;;6195735;23;19993;-71
2022/01/07 11:18:36;;;;;;;0.00;0.00;;;2.30;99.90;;;;;;6169164;23;19997;-72
2022/01/07 11:21:04;;;;;;;0.00;0.00;;;2.30;99.90;;;;;;6169653;23;19997;-73
2022/01/07 11:23:31;;;;;;;0.00;0.00;;;2.30;99.90;;;;;;6169245;23;20044;-74
2022/01/07 11:26:02;;;;;;;0.00;0.00;;;2.40;99.90;;;;;;6170135;23;19996;-73
2022/01/07 11:28:28;;;;;;;0.00;0.00;;;2.50;99.90;;;;;;6194988;23;20306;-71
2022/01/07 11:31:14;;;;;;;0.00;0.00;;;2.50;99.90;;;;;;6195863;23;19993;-73
2022/01/07 11:33:41;;;;;;;0.00;0.00;;;2.50;99.90;;;;;;6195368;23;19996;-72
2022/01/07 11:36:11;;;;;;;0.00;0.00;;;2.50;99.90;;;;;;6169068;23;20350;-71
2022/01/07 11:38:43;;;;;;;0.00;0.00;;;2.40;99.90;;;;;;6195507;23;20000;-70
2022/01/07 11:41:15;;;;;;;0.00;0.00;;;2.40;99.90;;;;;;6195468;23;19985;-71
2022/01/07 11:43:48;;;;;;;0.00;0.00;;;2.40;99.90;;;;;;6195568;23;20153;-69
2022/01/07 11:46:24;;;;;;;0.00;0.00;;;2.40;99.90;;;;;;6168630;23;20000;-71
2022/01/07 11:48:51;;;;;;;0.00;0.00;;;2.40;99.90;;;;;;6167017;23;20217;-72
2022/01/07 11:51:17;;;;;;;0.00;0.00;;;2.40;99.90;;;;;;6194159;23;20024;-69
2022/01/07 11:53:49;;;;;;;0.00;0.00;;;2.40;99.90;;;;;;6169227;23;20263;-71
2022/01/07 11:56:22;;;;;;;0.00;0.00;;;2.30;99.90;;;;;;6194569;23;20049;-69
2022/01/07 11:58:55;;;;;;;0.00;0.00;;;2.40;99.90;;;;;;6195352;23;20000;-70
2022/01/07 12:01:29;;;;;;;0.00;0.00;;;2.40;99.90;;;;;;6194735;23;20072;-69
2022/01/07 12:03:59;;;;;;;0.00;0.00;;;2.30;99.90;;;;;;6195250;23;20041;-69
2022/01/07 12:06:28;;;;;;;0.00;0.00;;;2.30;99.90;;;;;;6194785;23;20015;-70
2022/01/07 12:09:08;;;;;;;0.00;0.00;;;2.30;99.90;;;;;;6169289;23;19989;-71
2022/01/07 12:11:55;;;;;;;0.00;0.00;;;2.30;99.90;;;;;;6194988;23;19990;-68
2022/01/07 12:14:23;;;;;;;0.00;0.00;;;2.40;99.90;;;;;;6195121;23;20065;-69
2022/01/07 12:17:00;;;;;;;0.00;0.00;;;2.30;99.90;;;;;;6194878;23;20313;-71
2022/01/07 12:19:28;;;;;;;0.00;0.00;;;2.30;99.90;;;;;;6168376;23;19993;-71
2022/01/07 12:21:57;;;;;;;0.00;0.00;;;2.30;99.90;;;;;;6195391;23;19985;-72
2022/01/07 12:24:30;;;;;;;0.00;0.00;;;2.30;99.90;;;;;;6194568;23;20233;-70
2022/01/07 12:27:08;;;;;;;0.00;0.00;;;2.30;99.90;;;;;;6166587;23;20276;-73
2022/01/07 12:29:38;;;;;;;0.00;0.00;;;2.30;99.90;;;;;;6191478;23;19986;-71
2022/01/07 12:32:05;;;;;;;0.00;0.00;;;2.20;99.90;;;;;;6164186;23;20176;-70
2022/01/07 12:34:34;;;;;;;0.00;0.00;;;2.30;99.90;;;;;;6189653;23;19989;-70
2022/01/07 12:37:01;;;;;;;;;;;2.30;99.90;;;;;;6164425;23;20201;-70
2022/01/07 12:39:29;;;;;;;0.00;0.00;;;2.40;99.90;;;;;;6189823;23;19900;-71
2022/01/07 12:41:55;;;;;;;;;;;2.40;99.90;;;;;;6190060;23;19989;-71
2022/01/07 12:44:22;;;;;;;0.00;0.00;;;2.30;99.90;;;;;;6162979;23;20068;-70
2022/01/07 12:46:56;;;;;;;0.00;0.00;;;2.30;99.90;;;;;;6163863;23;19997;-71
2022/01/07 12:49:55;;;;;;;0.00;0.00;;;2.40;99.90;;;;;;6162538;23;20000;-70
2022/01/07 12:52:22;;;;;;;;;;;2.50;99.90;;;;;;6135865;23;20449;-70
2022/01/07 12:55:12;;;;;;;0.00;0.00;;;2.60;99.90;;;;;;6190314;23;19907;-73
2022/01/07 12:57:42;;;;;;;0.00;0.00;;;2.60;99.90;;;;;;6163785;23;20315;-70
2022/01/07 13:00:19;;;;;;;0.00;0.00;;;2.80;99.90;;;;;;6163690;23;20216;-70
2022/01/07 13:02:56;;;;;;;0.00;0.00;;;2.80;99.90;;;;;;6189828;23;19985;-70
2022/01/07 13:05:34;;;;;;;0.00;0.00;;;2.90;99.90;;;;;;6162975;23;19993;-70
2022/01/07 13:08:06;;;;;;;0.00;0.00;;;2.90;99.90;;;;;;6189602;23;20354;-69
2022/01/07 13:10:35;;;;;;;0.00;0.00;;;2.90;99.90;;;;;;6189682;23;19989;-71